sensor_id;sensor_type;location;lat;lon;timestamp;pressure;altitude;pressure_sealevel;temperature;humidity
64876;BME280;51369;49.862;9.908;2023-04-26T00:01:16;98370.03;;;5.29;67.27
64876;BME280;51369;49.862;9.908;2023-04-26T00:03:41;98367.44;;;5.26;67.81
64876;BME280;51369;49.862;9.908;2023-04-26T00:06:06;98370.13;;;5.24;67.27
64876;BME280;51369;49.862;9.908;2023-04-26T00:08:33;98374.66;;;5.20;67.81
64876;BME280;51369;49.862;9.908;2023-04-26T00:10:59;98373.88;;;5.17;67.82
64876;BME280;51369;49.862;9.908;2023-04-26T00:13:25;98373.97;;;5.12;67.77
64876;BME280;51369;49.862;9.908;2023-04-26T00:15:50;98367.88;;;5.06;68.47
64876;BME280;51369;49.862;9.908;2023-04-26T00:18:16;98367.13;;;4.99;67.75
64876;BME280;51369;49.862;9.908;2023-04-26T00:20:42;98377.03;;;4.94;68.33
64876;BME280;51369;49.862;9.908;2023-04-26T00:23:07;98375.38;;;4.88;68.93
64876;BME280;51369;49.862;9.908;2023-04-26T00:25:35;98380.81;;;4.84;68.70
64876;BME280;51369;49.862;9.908;2023-04-26T00:28:01;98380.00;;;4.80;68.73
64876;BME280;51369;49.862;9.908;2023-04-26T00:30:26;98377.41;;;4.76;68.81
64876;BME280;51369;49.862;9.908;2023-04-26T00:32:52;98371.22;;;4.72;69.38
64876;BME280;51369;49.862;9.908;2023-04-26T00:35:17;98373.06;;;4.70;68.95
64876;BME280;51369;49.862;9.908;2023-04-26T00:37:43;98366.88;;;4.67;69.42
64876;BME280;51369;49.862;9.908;2023-04-26T00:40:09;98376.78;;;4.62;69.68
64876;BME280;51369;49.862;9.908;2023-04-26T00:42:34;98370.66;;;4.56;69.16
64876;BME280;51369;49.862;9.908;2023-04-26T00:45:01;98371.63;;;4.51;70.27
64876;BME280;51369;49.862;9.908;2023-04-26T00:47:28;98372.59;;;4.47;69.60
64876;BME280;51369;49.862;9.908;2023-04-26T00:49:54;98378.91;;;4.43;70.29
64876;BME280;51369;49.862;9.908;2023-04-26T00:52:20;98381.63;;;4.41;70.17
64876;BME280;51369;49.862;9.908;2023-04-26T00:54:48;98381.63;;;4.41;70.41
64876;BME280;51369;49.862;9.908;2023-04-26T00:57:14;98380.78;;;4.38;69.91
64876;BME280;51369;49.862;9.908;2023-04-26T00:59:39;98386.19;;;4.35;69.87
64876;BME280;51369;49.862;9.908;2023-04-26T01:02:05;98390.72;;;4.31;69.52
64876;BME280;51369;49.862;9.908;2023-04-26T01:04:31;98385.41;;;4.28;69.55
64876;BME280;51369;49.862;9.908;2023-04-26T01:06:59;98381.06;;;4.22;69.69
64876;BME280;51369;49.862;9.908;2023-04-26T01:09:24;98386.50;;;4.16;69.39
64876;BME280;51369;49.862;9.908;2023-04-26T01:11:51;98383.09;;;4.08;70.12
64876;BME280;51369;49.862;9.908;2023-04-26T01:14:17;98392.09;;;4.03;69.37
64876;BME280;51369;49.862;9.908;2023-04-26T01:16:43;98394.88;;;3.95;70.10
64876;BME280;51369;49.862;9.908;2023-04-26T01:19:12;98390.53;;;3.88;70.53
64876;BME280;51369;49.862;9.908;2023-04-26T01:21:41;98392.41;;;3.83;70.34
64876;BME280;51369;49.862;9.908;2023-04-26T01:24:10;98392.47;;;3.78;70.33
64876;BME280;51369;49.862;9.908;2023-04-26T01:26:40;98381.88;;;3.74;69.85
64876;BME280;51369;49.862;9.908;2023-04-26T01:29:19;98383.69;;;3.70;70.04
64876;BME280;51369;49.862;9.908;2023-04-26T01:31:46;98391.75;;;3.67;70.74
64876;BME280;51369;49.862;9.908;2023-04-26T01:34:12;98390.94;;;3.62;70.84
64876;BME280;51369;49.862;9.908;2023-04-26T01:36:38;98395.41;;;3.60;70.17
64876;BME280;51369;49.862;9.908;2023-04-26T01:39:04;98383.91;;;3.56;71.59
64876;BME280;51369;49.862;9.908;2023-04-26T01:41:29;98384.84;;;3.52;71.12
64876;BME280;51369;49.862;9.908;2023-04-26T01:43:58;98386.66;;;3.52;71.95
64876;BME280;51369;49.862;9.908;2023-04-26T01:46:24;98387.53;;;3.51;71.85
64876;BME280;51369;49.862;9.908;2023-04-26T01:48:49;98383.13;;;3.48;70.99
64876;BME280;51369;49.862;9.908;2023-04-26T01:51:15;98383.16;;;3.47;70.85
64876;BME280;51369;49.862;9.908;2023-04-26T01:53:41;98380.53;;;3.45;71.96
64876;BME280;51369;49.862;9.908;2023-04-26T01:56:06;98389.47;;;3.43;71.82
64876;BME280;51369;49.862;9.908;2023-04-26T01:58:31;98388.59;;;3.42;71.84
64876;BME280;51369;49.862;9.908;2023-04-26T02:01:04;98392.19;;;3.40;71.88
64876;BME280;51369;49.862;9.908;2023-04-26T02:03:30;98388.66;;;3.38;71.40
64876;BME280;51369;49.862;9.908;2023-04-26T02:05:56;98390.47;;;3.36;71.54
64876;BME280;51369;49.862;9.908;2023-04-26T02:08:21;98392.28;;;3.34;71.27
64876;BME280;51369;49.862;9.908;2023-04-26T02:10:46;98383.41;;;3.32;72.34
64876;BME280;51369;49.862;9.908;2023-04-26T02:13:13;98387.00;;;3.29;72.19
64876;BME280;51369;49.862;9.908;2023-04-26T02:15:39;98400.34;;;3.28;72.82
64876;BME280;51369;49.862;9.908;2023-04-26T02:18:06;98393.25;;;3.26;72.38
64876;BME280;51369;49.862;9.908;2023-04-26T02:20:32;98387.91;;;3.26;72.93
64876;BME280;51369;49.862;9.908;2023-04-26T02:22:57;98390.59;;;3.26;72.42
64876;BME280;51369;49.862;9.908;2023-04-26T02:25:23;98387.03;;;3.28;72.69
64876;BME280;51369;49.862;9.908;2023-04-26T02:27:49;98389.69;;;3.28;72.97
64876;BME280;51369;49.862;9.908;2023-04-26T02:30:14;98387.00;;;3.29;72.82
64876;BME280;51369;49.862;9.908;2023-04-26T02:32:40;98380.75;;;3.32;72.30
64876;BME280;51369;49.862;9.908;2023-04-26T02:35:05;98387.84;;;3.33;72.62
64876;BME280;51369;49.862;9.908;2023-04-26T02:37:32;98387.81;;;3.34;72.69
64876;BME280;51369;49.862;9.908;2023-04-26T02:39:58;98392.25;;;3.35;72.13
64876;BME280;51369;49.862;9.908;2023-04-26T02:42:24;98389.56;;;3.37;72.15
64876;BME280;51369;49.862;9.908;2023-04-26T02:44:49;98399.34;;;3.38;72.16
64876;BME280;51369;49.862;9.908;2023-04-26T02:47:15;98403.75;;;3.39;72.76
64876;BME280;51369;49.862;9.908;2023-04-26T02:49:41;98398.41;;;3.40;72.17
64876;BME280;51369;49.862;9.908;2023-04-26T02:52:07;98395.72;;;3.42;73.21
64876;BME280;51369;49.862;9.908;2023-04-26T02:54:32;98390.34;;;3.43;72.27
64876;BME280;51369;49.862;9.908;2023-04-26T02:56:58;98396.50;;;3.47;72.22
64876;BME280;51369;49.862;9.908;2023-04-26T02:59:23;98387.59;;;3.48;72.71
64876;BME280;51369;49.862;9.908;2023-04-26T03:01:49;98387.59;;;3.48;71.45
64876;BME280;51369;49.862;9.908;2023-04-26T03:04:15;98398.25;;;3.49;71.41
64876;BME280;51369;49.862;9.908;2023-04-26T03:06:42;98388.44;;;3.50;71.66
64876;BME280;51369;49.862;9.908;2023-04-26T03:09:08;98389.34;;;3.50;71.79
64876;BME280;51369;49.862;9.908;2023-04-26T03:11:34;98392.03;;;3.49;71.51
64876;BME280;51369;49.862;9.908;2023-04-26T03:14:00;98392.91;;;3.49;71.60
64876;BME280;51369;49.862;9.908;2023-04-26T03:16:26;98391.13;;;3.48;70.99
64876;BME280;51369;49.862;9.908;2023-04-26T03:18:52;98395.66;;;3.46;71.20
64876;BME280;51369;49.862;9.908;2023-04-26T03:21:19;98393.03;;;3.43;71.76
64876;BME280;51369;49.862;9.908;2023-04-26T03:23:45;98403.75;;;3.40;71.33
64876;BME280;51369;49.862;9.908;2023-04-26T03:26:12;98403.78;;;3.37;71.27
64876;BME280;51369;49.862;9.908;2023-04-26T03:28:40;98401.13;;;3.36;70.39
64876;BME280;51369;49.862;9.908;2023-04-26T03:31:05;98398.50;;;3.33;70.80
64876;BME280;51369;49.862;9.908;2023-04-26T03:33:31;98396.75;;;3.30;71.67
64876;BME280;51369;49.862;9.908;2023-04-26T03:35:57;98394.13;;;3.29;71.25
64876;BME280;51369;49.862;9.908;2023-04-26T03:38:22;98390.59;;;3.25;70.94
64876;BME280;51369;49.862;9.908;2023-04-26T03:40:48;98403.09;;;3.23;71.22
64876;BME280;51369;49.862;9.908;2023-04-26T03:43:14;98396.03;;;3.19;71.14
64876;BME280;51369;49.862;9.908;2023-04-26T03:45:39;98403.19;;;3.15;70.96
64876;BME280;51369;49.862;9.908;2023-04-26T03:48:05;98399.69;;;3.12;70.75
64876;BME280;51369;49.862;9.908;2023-04-26T03:50:30;98401.53;;;3.07;70.72
64876;BME280;51369;49.862;9.908;2023-04-26T03:52:56;98398.88;;;3.04;69.65
64876;BME280;51369;49.862;9.908;2023-04-26T03:55:21;98402.50;;;3.00;70.45
64876;BME280;51369;49.862;9.908;2023-04-26T03:57:47;98401.66;;;2.96;70.78
64876;BME280;51369;49.862;9.908;2023-04-26T04:00:13;98406.13;;;2.92;69.86
64876;BME280;51369;49.862;9.908;2023-04-26T04:02:41;98402.63;;;2.87;70.91
64876;BME280;51369;49.862;9.908;2023-04-26T04:05:10;98399.16;;;2.82;69.04
64876;BME280;51369;49.862;9.908;2023-04-26T04:07:35;98393.88;;;2.78;69.08
64876;BME280;51369;49.862;9.908;2023-04-26T04:10:02;98401.00;;;2.76;69.90
64876;BME280;51369;49.862;9.908;2023-04-26T04:12:27;98403.69;;;2.74;69.74
64876;BME280;51369;49.862;9.908;2023-04-26T04:14:52;98403.69;;;2.73;70.36
64876;BME280;51369;49.862;9.908;2023-04-26T04:17:18;98410.78;;;2.74;69.99
64876;BME280;51369;49.862;9.908;2023-04-26T04:19:43;98401.03;;;2.73;71.26
64876;BME280;51369;49.862;9.908;2023-04-26T04:22:10;98404.59;;;2.72;71.32
64876;BME280;51369;49.862;9.908;2023-04-26T04:24:36;98397.50;;;2.71;70.02
64876;BME280;51369;49.862;9.908;2023-04-26T04:27:02;98406.41;;;2.68;71.13
64876;BME280;51369;49.862;9.908;2023-04-26T04:29:28;98406.44;;;2.65;70.71
64876;BME280;51369;49.862;9.908;2023-04-26T04:31:54;98413.59;;;2.61;70.92
64876;BME280;51369;49.862;9.908;2023-04-26T04:34:19;98412.75;;;2.56;71.28
64876;BME280;51369;49.862;9.908;2023-04-26T04:36:46;98418.09;;;2.55;71.85
64876;BME280;51369;49.862;9.908;2023-04-26T04:39:11;98408.34;;;2.54;72.19
64876;BME280;51369;49.862;9.908;2023-04-26T04:41:41;98419.88;;;2.54;72.05
64876;BME280;51369;49.862;9.908;2023-04-26T04:44:16;98427.88;;;2.54;71.98
64876;BME280;51369;49.862;9.908;2023-04-26T04:46:42;98427.84;;;2.57;72.02
64876;BME280;51369;49.862;9.908;2023-04-26T04:49:10;98425.19;;;2.57;72.34
64876;BME280;51369;49.862;9.908;2023-04-26T04:51:36;98431.38;;;2.59;71.56
64876;BME280;51369;49.862;9.908;2023-04-26T04:54:11;98434.94;;;2.58;71.21
64876;BME280;51369;49.862;9.908;2023-04-26T04:56:37;98438.47;;;2.60;71.17
64876;BME280;51369;49.862;9.908;2023-04-26T04:59:02;98428.72;;;2.59;71.65
64876;BME280;51369;49.862;9.908;2023-04-26T05:01:30;98430.50;;;2.57;71.30
64876;BME280;51369;49.862;9.908;2023-04-26T05:03:59;98437.63;;;2.58;71.95
64876;BME280;51369;49.862;9.908;2023-04-26T05:06:27;98429.63;;;2.57;72.85
64876;BME280;51369;49.862;9.908;2023-04-26T05:08:53;98432.28;;;2.58;71.92
64876;BME280;51369;49.862;9.908;2023-04-26T05:11:18;98431.41;;;2.58;72.11
64876;BME280;51369;49.862;9.908;2023-04-26T05:13:45;98436.72;;;2.58;73.26
64876;BME280;51369;49.862;9.908;2023-04-26T05:16:11;98442.03;;;2.59;73.01
64876;BME280;51369;49.862;9.908;2023-04-26T05:18:37;98445.56;;;2.63;73.66
64876;BME280;51369;49.862;9.908;2023-04-26T05:21:03;98449.97;;;2.66;73.17
64876;BME280;51369;49.862;9.908;2023-04-26T05:23:28;98451.72;;;2.70;72.98
64876;BME280;51369;49.862;9.908;2023-04-26T05:25:54;98452.56;;;2.73;73.26
64876;BME280;51369;49.862;9.908;2023-04-26T05:28:43;98460.47;;;2.81;73.84
64876;BME280;51369;49.862;9.908;2023-04-26T05:31:27;98458.63;;;2.89;73.18
64876;BME280;51369;49.862;9.908;2023-04-26T05:34:02;98469.16;;;3.00;73.98
64876;BME280;51369;49.862;9.908;2023-04-26T05:36:32;98467.22;;;3.15;73.29
64876;BME280;51369;49.862;9.908;2023-04-26T05:38:57;98468.75;;;3.35;73.29
64876;BME280;51369;49.862;9.908;2023-04-26T05:41:23;98470.22;;;3.55;73.94
64876;BME280;51369;49.862;9.908;2023-04-26T05:43:48;98468.16;;;3.77;73.50
64876;BME280;51369;49.862;9.908;2023-04-26T05:46:14;98475.84;;;3.99;72.86
64876;BME280;51369;49.862;9.908;2023-04-26T05:48:40;98475.50;;;4.21;73.46
64876;BME280;51369;49.862;9.908;2023-04-26T05:51:05;98472.41;;;4.47;73.30
64876;BME280;51369;49.862;9.908;2023-04-26T05:53:30;98469.25;;;4.75;72.11
64876;BME280;51369;49.862;9.908;2023-04-26T05:55:56;98480.31;;;5.03;71.65
64876;BME280;51369;49.862;9.908;2023-04-26T05:58:21;98479.72;;;5.32;71.60
64876;BME280;51369;49.862;9.908;2023-04-26T06:00:47;98477.38;;;5.60;71.69
64876;BME280;51369;49.862;9.908;2023-04-26T06:03:12;98486.53;;;5.91;71.03
64876;BME280;51369;49.862;9.908;2023-04-26T06:05:37;98476.00;;;6.22;70.24
64876;BME280;51369;49.862;9.908;2023-04-26T06:08:03;98472.56;;;6.52;69.49
64876;BME280;51369;49.862;9.908;2023-04-26T06:10:29;98463.72;;;6.83;68.53
64876;BME280;51369;49.862;9.908;2023-04-26T06:12:54;98468.19;;;7.15;67.53
64876;BME280;51369;49.862;9.908;2023-04-26T06:15:20;98469.88;;;7.50;66.63
64876;BME280;51369;49.862;9.908;2023-04-26T06:17:46;98471.50;;;7.87;65.40
64876;BME280;51369;49.862;9.908;2023-04-26T06:20:11;98465.81;;;8.25;64.48
64876;BME280;51369;49.862;9.908;2023-04-26T06:22:37;98460.28;;;8.58;63.52
64876;BME280;51369;49.862;9.908;2023-04-26T06:25:06;98467.34;;;8.87;62.25
64876;BME280;51369;49.862;9.908;2023-04-26T06:27:33;98464.69;;;9.11;60.86
64876;BME280;51369;49.862;9.908;2023-04-26T06:29:59;98475.56;;;9.33;61.02
64876;BME280;51369;49.862;9.908;2023-04-26T06:32:25;98479.53;;;9.48;60.15
64876;BME280;51369;49.862;9.908;2023-04-26T06:34:53;98480.13;;;9.56;59.92
64876;BME280;51369;49.862;9.908;2023-04-26T06:37:19;98479.88;;;9.62;59.73
64876;BME280;51369;49.862;9.908;2023-04-26T06:39:46;98480.72;;;9.64;59.50
64876;BME280;51369;49.862;9.908;2023-04-26T06:42:12;98485.22;;;9.64;59.52
64876;BME280;51369;49.862;9.908;2023-04-26T06:45:07;98482.53;;;9.64;60.00
64876;BME280;51369;49.862;9.908;2023-04-26T06:47:33;98488.84;;;9.63;59.63
64876;BME280;51369;49.862;9.908;2023-04-26T06:50:00;98492.44;;;9.63;59.58
64876;BME280;51369;49.862;9.908;2023-04-26T06:52:25;98486.94;;;9.66;59.62
64876;BME280;51369;49.862;9.908;2023-04-26T06:54:50;98487.53;;;9.74;59.18
64876;BME280;51369;49.862;9.908;2023-04-26T06:57:16;98489.03;;;9.82;59.23
64876;BME280;51369;49.862;9.908;2023-04-26T06:59:41;98488.63;;;9.92;59.21
64876;BME280;51369;49.862;9.908;2023-04-26T07:02:06;98485.41;;;10.06;58.36
64876;BME280;51369;49.862;9.908;2023-04-26T07:04:32;98491.22;;;10.19;58.40
64876;BME280;51369;49.862;9.908;2023-04-26T07:06:57;98487.13;;;10.32;58.28
64876;BME280;51369;49.862;9.908;2023-04-26T07:09:23;98492.06;;;10.42;57.88
64876;BME280;51369;49.862;9.908;2023-04-26T07:11:48;98478.94;;;10.55;58.00
64876;BME280;51369;49.862;9.908;2023-04-26T07:14:13;98482.06;;;10.66;56.75
64876;BME280;51369;49.862;9.908;2023-04-26T07:16:39;98480.88;;;10.73;56.38
64876;BME280;51369;49.862;9.908;2023-04-26T07:19:05;98484.22;;;10.80;56.17
64876;BME280;51369;49.862;9.908;2023-04-26T07:21:31;98479.50;;;10.85;55.53
64876;BME280;51369;49.862;9.908;2023-04-26T07:23:56;98486.13;;;10.98;56.34
64876;BME280;51369;49.862;9.908;2023-04-26T07:26:22;98482.91;;;11.11;54.83
64876;BME280;51369;49.862;9.908;2023-04-26T07:28:50;98485.75;;;11.28;55.08
64876;BME280;51369;49.862;9.908;2023-04-26T07:31:15;98488.47;;;11.48;54.85
64876;BME280;51369;49.862;9.908;2023-04-26T07:33:40;98473.31;;;11.64;53.59
64876;BME280;51369;49.862;9.908;2023-04-26T07:36:06;98471.88;;;11.76;53.47
64876;BME280;51369;49.862;9.908;2023-04-26T07:38:32;98482.97;;;11.90;53.58
64876;BME280;51369;49.862;9.908;2023-04-26T07:40:57;98471.56;;;12.02;52.39
64876;BME280;51369;49.862;9.908;2023-04-26T07:43:23;98480.03;;;12.14;51.78
64876;BME280;51369;49.862;9.908;2023-04-26T07:45:48;98479.50;;;12.24;52.57
64876;BME280;51369;49.862;9.908;2023-04-26T07:48:14;98470.06;;;12.33;51.98
64876;BME280;51369;49.862;9.908;2023-04-26T07:50:39;98472.63;;;12.36;51.57
64876;BME280;51369;49.862;9.908;2023-04-26T07:53:05;98480.97;;;12.31;50.61
64876;BME280;51369;49.862;9.908;2023-04-26T07:55:30;98476.94;;;12.21;50.64
64876;BME280;51369;49.862;9.908;2023-04-26T07:57:55;98482.84;;;12.12;50.84
64876;BME280;51369;49.862;9.908;2023-04-26T08:00:21;98477.84;;;12.03;50.10
64876;BME280;51369;49.862;9.908;2023-04-26T08:02:47;98479.97;;;11.96;51.07
64876;BME280;51369;49.862;9.908;2023-04-26T08:05:14;98480.25;;;11.90;51.50
64876;BME280;51369;49.862;9.908;2023-04-26T08:07:43;98491.69;;;11.77;51.03
64876;BME280;51369;49.862;9.908;2023-04-26T08:10:08;98481.34;;;11.66;51.83
64876;BME280;51369;49.862;9.908;2023-04-26T08:12:36;98475.41;;;11.58;51.19
64876;BME280;51369;49.862;9.908;2023-04-26T08:15:03;98480.88;;;11.56;51.51
64876;BME280;51369;49.862;9.908;2023-04-26T08:17:30;98484.53;;;11.55;51.25
64876;BME280;51369;49.862;9.908;2023-04-26T08:19:56;98487.31;;;11.54;51.75
64876;BME280;51369;49.862;9.908;2023-04-26T08:22:21;98481.09;;;11.52;51.59
64876;BME280;51369;49.862;9.908;2023-04-26T08:24:52;98484.66;;;11.52;51.65
64876;BME280;51369;49.862;9.908;2023-04-26T08:27:18;98484.66;;;11.52;50.69
64876;BME280;51369;49.862;9.908;2023-04-26T08:29:43;98482.72;;;11.56;50.97
64876;BME280;51369;49.862;9.908;2023-04-26T08:32:09;98487.78;;;11.63;51.39
64876;BME280;51369;49.862;9.908;2023-04-26T08:34:34;98489.25;;;11.70;51.29
64876;BME280;51369;49.862;9.908;2023-04-26T08:36:59;98488.16;;;11.74;49.57
64876;BME280;51369;49.862;9.908;2023-04-26T08:39:25;98487.84;;;11.82;50.07
64876;BME280;51369;49.862;9.908;2023-04-26T08:41:53;98480.13;;;11.93;50.91
64876;BME280;51369;49.862;9.908;2023-04-26T08:44:24;98486.72;;;12.07;50.24
64876;BME280;51369;49.862;9.908;2023-04-26T08:52:09;98476.44;;;12.51;49.27
64876;BME280;51369;49.862;9.908;2023-04-26T08:54:36;98477.59;;;12.64;48.49
64876;BME280;51369;49.862;9.908;2023-04-26T08:57:02;98477.13;;;12.73;47.78
64876;BME280;51369;49.862;9.908;2023-04-26T08:59:29;98489.19;;;12.85;48.66
64876;BME280;51369;49.862;9.908;2023-04-26T09:01:55;98479.41;;;12.99;48.88
64876;BME280;51369;49.862;9.908;2023-04-26T09:04:21;98476.22;;;13.09;47.53
64876;BME280;51369;49.862;9.908;2023-04-26T09:06:48;98467.78;;;13.15;46.89
64876;BME280;51369;49.862;9.908;2023-04-26T09:09:17;98474.84;;;13.19;46.87
64876;BME280;51369;49.862;9.908;2023-04-26T09:11:54;98472.34;;;13.31;47.68
64876;BME280;51369;49.862;9.908;2023-04-26T09:14:21;98475.63;;;13.38;45.49
64876;BME280;51369;49.862;9.908;2023-04-26T09:16:46;98477.22;;;13.42;46.44
64876;BME280;51369;49.862;9.908;2023-04-26T09:19:12;98479.78;;;13.45;46.08
64876;BME280;51369;49.862;9.908;2023-04-26T09:21:45;98478.97;;;13.43;47.45
64876;BME280;51369;49.862;9.908;2023-04-26T09:24:11;98463.81;;;13.39;47.14
64876;BME280;51369;49.862;9.908;2023-04-26T09:26:37;98478.09;;;13.43;47.65
64876;BME280;51369;49.862;9.908;2023-04-26T09:29:13;98473.41;;;13.46;47.08
64876;BME280;51369;49.862;9.908;2023-04-26T09:31:42;98466.84;;;13.50;47.44
64876;BME280;51369;49.862;9.908;2023-04-26T09:34:10;98466.94;;;13.49;47.27
64876;BME280;51369;49.862;9.908;2023-04-26T09:36:54;98467.34;;;13.41;47.10
64876;BME280;51369;49.862;9.908;2023-04-26T09:39:34;98467.09;;;13.28;46.92
64876;BME280;51369;49.862;9.908;2023-04-26T09:42:02;98455.94;;;13.17;47.13
64876;BME280;51369;49.862;9.908;2023-04-26T09:44:29;98467.94;;;13.12;47.85
64876;BME280;51369;49.862;9.908;2023-04-26T09:47:04;98458.69;;;13.16;46.54
64876;BME280;51369;49.862;9.908;2023-04-26T09:49:48;98457.84;;;13.32;46.17
64876;BME280;51369;49.862;9.908;2023-04-26T09:52:16;98458.38;;;13.56;46.31
64876;BME280;51369;49.862;9.908;2023-04-26T09:57:11;98447.72;;;14.02;44.95
64876;BME280;51369;49.862;9.908;2023-04-26T09:59:47;98458.59;;;14.18;46.38
64876;BME280;51369;49.862;9.908;2023-04-26T10:02:18;98436.88;;;14.33;45.53
64876;BME280;51369;49.862;9.908;2023-04-26T10:04:45;98445.50;;;14.42;46.27
64876;BME280;51369;49.862;9.908;2023-04-26T10:07:12;98430.41;;;14.36;45.72
64876;BME280;51369;49.862;9.908;2023-04-26T10:09:39;98445.19;;;14.30;45.42
64876;BME280;51369;49.862;9.908;2023-04-26T10:12:05;98455.63;;;14.22;46.81
64876;BME280;51369;49.862;9.908;2023-04-26T10:14:33;98442.56;;;14.13;45.19
64876;BME280;51369;49.862;9.908;2023-04-26T10:16:59;98450.25;;;14.05;43.49
64876;BME280;51369;49.862;9.908;2023-04-26T10:19:24;98442.97;;;13.90;44.76
64876;BME280;51369;49.862;9.908;2023-04-26T10:21:52;98447.34;;;13.77;44.37
64876;BME280;51369;49.862;9.908;2023-04-26T10:24:22;98441.13;;;13.75;45.80
64876;BME280;51369;49.862;9.908;2023-04-26T10:26:49;98447.84;;;13.67;45.48
64876;BME280;51369;49.862;9.908;2023-04-26T10:29:20;98441.69;;;13.64;45.80
64876;BME280;51369;49.862;9.908;2023-04-26T10:34:30;98459.00;;;13.61;46.35
64876;BME280;51369;49.862;9.908;2023-04-26T10:39:32;98447.38;;;13.42;45.36
64876;BME280;51369;49.862;9.908;2023-04-26T10:42:19;98450.09;;;13.42;46.57
64876;BME280;51369;49.862;9.908;2023-04-26T10:44:55;98441.16;;;13.57;47.53
64876;BME280;51369;49.862;9.908;2023-04-26T10:47:29;98433.75;;;13.77;45.35
64876;BME280;51369;49.862;9.908;2023-04-26T10:50:08;98434.31;;;13.99;44.60
64876;BME280;51369;49.862;9.908;2023-04-26T10:52:36;98422.31;;;14.19;44.07
64876;BME280;51369;49.862;9.908;2023-04-26T10:55:02;98414.19;;;14.34;42.80
64876;BME280;51369;49.862;9.908;2023-04-26T10:57:50;98421.75;;;14.45;45.65
64876;BME280;51369;49.862;9.908;2023-04-26T11:00:24;98411.50;;;14.50;43.90
64876;BME280;51369;49.862;9.908;2023-04-26T11:02:55;98416.84;;;14.52;43.79
64876;BME280;51369;49.862;9.908;2023-04-26T11:08:19;98399.84;;;14.48;45.15
64876;BME280;51369;49.862;9.908;2023-04-26T11:11:10;98413.16;;;14.53;45.62
64876;BME280;51369;49.862;9.908;2023-04-26T11:13:39;98407.22;;;14.46;43.54
64876;BME280;51369;49.862;9.908;2023-04-26T11:16:11;98404.03;;;14.38;41.93
64876;BME280;51369;49.862;9.908;2023-04-26T11:18:39;98397.19;;;14.31;42.16
64876;BME280;51369;49.862;9.908;2023-04-26T11:21:06;98402.97;;;14.25;42.47
64876;BME280;51369;49.862;9.908;2023-04-26T11:23:32;98402.09;;;14.24;43.42
64876;BME280;51369;49.862;9.908;2023-04-26T11:25:59;98403.59;;;14.30;43.97
64876;BME280;51369;49.862;9.908;2023-04-26T11:28:27;98398.00;;;14.49;44.02
64876;BME280;51369;49.862;9.908;2023-04-26T11:30:53;98388.50;;;14.72;44.52
64876;BME280;51369;49.862;9.908;2023-04-26T11:33:20;98392.25;;;14.85;45.03
64876;BME280;51369;49.862;9.908;2023-04-26T11:35:51;98393.63;;;14.92;44.24
64876;BME280;51369;49.862;9.908;2023-04-26T11:38:20;98381.16;;;15.04;45.47
64876;BME280;51369;49.862;9.908;2023-04-26T11:40:52;98379.81;;;15.11;43.12
64876;BME280;51369;49.862;9.908;2023-04-26T11:43:18;98384.97;;;15.15;43.14
64876;BME280;51369;49.862;9.908;2023-04-26T11:45:44;98383.03;;;15.17;42.74
64876;BME280;51369;49.862;9.908;2023-04-26T11:48:11;98375.06;;;15.14;42.66
64876;BME280;51369;49.862;9.908;2023-04-26T11:50:37;98378.75;;;15.13;42.08
64876;BME280;51369;49.862;9.908;2023-04-26T11:53:04;98388.56;;;15.16;42.70
64876;BME280;51369;49.862;9.908;2023-04-26T11:55:30;98382.72;;;15.08;41.47
64876;BME280;51369;49.862;9.908;2023-04-26T11:57:58;98369.84;;;14.95;39.93
64876;BME280;51369;49.862;9.908;2023-04-26T12:00:24;98364.59;;;14.92;42.53
64876;BME280;51369;49.862;9.908;2023-04-26T12:02:50;98375.28;;;14.95;43.58
64876;BME280;51369;49.862;9.908;2023-04-26T12:05:28;98371.22;;;15.03;43.04
64876;BME280;51369;49.862;9.908;2023-04-26T12:07:58;98376.22;;;15.10;42.13
64876;BME280;51369;49.862;9.908;2023-04-26T12:10:26;98373.03;;;15.18;44.90
64876;BME280;51369;49.862;9.908;2023-04-26T12:12:53;98377.59;;;15.17;42.38
64876;BME280;51369;49.862;9.908;2023-04-26T12:15:31;98378.94;;;15.10;42.02
64876;BME280;51369;49.862;9.908;2023-04-26T12:18:06;98382.03;;;15.04;41.54
64876;BME280;51369;49.862;9.908;2023-04-26T12:20:37;98381.25;;;15.02;43.43
64876;BME280;51369;49.862;9.908;2023-04-26T12:23:05;98379.47;;;15.01;42.28
64876;BME280;51369;49.862;9.908;2023-04-26T12:25:33;98382.53;;;15.11;44.09
64876;BME280;51369;49.862;9.908;2023-04-26T12:28:00;98372.63;;;15.24;43.26
64876;BME280;51369;49.862;9.908;2023-04-26T12:30:27;98370.81;;;15.39;43.32
64876;BME280;51369;49.862;9.908;2023-04-26T12:33:00;98367.84;;;15.57;44.00
64876;BME280;51369;49.862;9.908;2023-04-26T12:35:26;98363.84;;;15.77;42.70
64876;BME280;51369;49.862;9.908;2023-04-26T12:37:51;98369.28;;;15.91;41.58
64876;BME280;51369;49.862;9.908;2023-04-26T12:40:22;98368.69;;;16.01;40.01
64876;BME280;51369;49.862;9.908;2023-04-26T12:42:48;98363.03;;;16.04;39.42
64876;BME280;51369;49.862;9.908;2023-04-26T12:45:13;98361.31;;;15.88;38.08
64876;BME280;51369;49.862;9.908;2023-04-26T12:47:39;98355.88;;;15.74;39.05
64876;BME280;51369;49.862;9.908;2023-04-26T12:50:04;98351.69;;;15.69;40.09
64876;BME280;51369;49.862;9.908;2023-04-26T12:52:30;98352.66;;;15.82;41.01
64876;BME280;51369;49.862;9.908;2023-04-26T12:54:57;98355.63;;;16.06;40.12
64876;BME280;51369;49.862;9.908;2023-04-26T12:57:22;98360.09;;;16.21;40.21
64876;BME280;51369;49.862;9.908;2023-04-26T12:59:48;98356.44;;;16.35;42.86
64876;BME280;51369;49.862;9.908;2023-04-26T13:02:13;98361.38;;;16.42;42.31
64876;BME280;51369;49.862;9.908;2023-04-26T13:04:38;98367.09;;;16.52;43.12
64876;BME280;51369;49.862;9.908;2023-04-26T13:07:04;98355.38;;;16.64;41.97
64876;BME280;51369;49.862;9.908;2023-04-26T13:09:30;98354.38;;;16.79;43.59
64876;BME280;51369;49.862;9.908;2023-04-26T13:11:56;98355.13;;;16.81;41.22
64876;BME280;51369;49.862;9.908;2023-04-26T13:14:21;98356.75;;;16.71;40.45
64876;BME280;51369;49.862;9.908;2023-04-26T13:16:48;98366.28;;;16.64;39.88
64876;BME280;51369;49.862;9.908;2023-04-26T13:19:13;98357.75;;;16.56;36.94
64876;BME280;51369;49.862;9.908;2023-04-26T13:21:39;98355.72;;;16.45;37.62